Time;durP1;ratioP1;P1;durP2;ratioP2;P2;SDS_P1;SDS_P2;PMS_P1;PMS_P2;Temp;Humidity;BMP_temperature;BMP_pressure;BME280_temperature;BME280_humidity;BME280_pressure;Samples;Min_cycle;Max_cycle;Signal;HPM_P1;HPM_P2
2023/04/07 00:00:21;;;;;;;22.20;13.03;;;;;;;-145.18;100.00;60484.78;5055015;28;20025;-70
2023/04/07 00:02:47;;;;;;;23.23;13.10;;;;;;;-145.18;100.00;60484.78;5054933;28;20108;-70
2023/04/07 00:05:13;;;;;;;21.73;13.60;;;;;;;-145.18;100.00;60484.78;5054901;28;20429;-71
2023/04/07 00:07:39;;;;;;;21.53;13.03;;;;;;;-145.18;100.00;60484.78;5050319;28;20052;-71
2023/04/07 00:10:05;;;;;;;22.60;12.47;;;;;;;-145.18;100.00;60484.78;5054720;28;20056;-71
2023/04/07 00:12:31;;;;;;;21.83;13.03;;;;;;;-145.18;100.00;60484.78;5042485;28;20047;-71
2023/04/07 00:14:56;;;;;;;22.80;12.37;;;;;;;-145.18;100.00;60484.78;5054969;28;20108;-71
2023/04/07 00:17:22;;;;;;;23.10;12.30;;;;;;;-145.18;100.00;60484.78;5054297;28;20071;-71
2023/04/07 00:19:47;;;;;;;23.57;12.43;;;;;;;-145.18;100.00;60484.78;5054743;28;20086;-71
2023/04/07 00:22:13;;;;;;;23.57;12.17;;;;;;;-145.18;100.00;60484.78;5052928;28;20040;-70
2023/04/07 00:24:38;;;;;;;21.07;12.10;;;;;;;-145.18;100.00;60484.78;5054456;28;20053;-66
2023/04/07 00:27:04;;;;;;;21.00;12.53;;;;;;;-145.18;100.00;60484.78;5055090;28;20052;-67
2023/04/07 00:29:30;;;;;;;21.27;12.37;;;;;;;-145.18;100.00;60484.78;5054613;28;20441;-66
2023/04/07 00:31:55;;;;;;;21.00;12.60;;;;;;;-145.18;100.00;60484.78;5054774;28;20204;-66
2023/04/07 00:34:21;;;;;;;24.97;13.03;;;;;;;-145.18;100.00;60484.78;5054461;28;20032;-67
2023/04/07 00:36:50;;;;;;;26.50;13.13;;;;;;;-145.18;100.00;60484.78;5054560;28;20076;-66
2023/04/07 00:39:19;;;;;;;22.37;12.87;;;;;;;-145.18;100.00;60484.78;5054342;28;20025;-66
2023/04/07 00:41:46;;;;;;;24.67;13.90;;;;;;;-145.18;100.00;60484.78;5054390;28;20075;-69
2023/04/07 00:44:12;;;;;;;22.47;13.73;;;;;;;-145.18;100.00;60484.78;5054160;28;20037;-67
2023/04/07 00:46:38;;;;;;;23.33;12.97;;;;;;;-145.18;100.00;60484.78;5054043;28;20039;-66
2023/04/07 00:49:03;;;;;;;23.70;12.60;;;;;;;-145.18;100.00;60484.78;5054535;28;20029;-66
2023/04/07 00:51:30;;;;;;;22.87;13.30;;;;;;;-145.18;100.00;60484.78;5053993;28;20409;-66
2023/04/07 00:53:55;;;;;;;22.10;12.53;;;;;;;-145.18;100.00;60484.78;5053954;28;20120;-66
2023/04/07 00:56:21;;;;;;;19.83;11.97;;;;;;;-145.18;100.00;60484.78;5053811;28;20525;-66
2023/04/07 00:58:47;;;;;;;21.67;12.27;;;;;;;-145.18;100.00;60484.78;5053618;28;20056;-68
2023/04/07 01:04:50;;;;;;;22.42;12.90;;;;;;;-145.18;100.00;60484.78;5073009;23;20359;-63
2023/04/07 01:07:56;;;;;;;21.40;13.30;;;;;;;-145.18;100.00;60484.78;5067938;28;20032;-63
2023/04/07 01:10:32;;;;;;;22.03;12.67;;;;;;;-145.18;100.00;60484.78;5062820;28;20043;-64
2023/04/07 01:13:33;;;;;;;22.90;13.23;;;;;;;-145.18;100.00;60484.78;5073399;28;20502;-64
2023/04/07 01:16:03;;;;;;;23.37;14.20;;;;;;;-145.18;100.00;60484.78;5071056;28;20124;-64
2023/04/07 01:18:33;;;;;;;23.13;13.87;;;;;;;-145.18;100.00;60484.78;5073067;28;20430;-63
2023/04/07 01:21:06;;;;;;;24.43;14.23;;;;;;;-145.18;100.00;60484.78;5060831;28;20032;-64
2023/04/07 01:24:08;;;;;;;24.93;13.93;;;;;;;-145.18;100.00;60484.78;5073553;28;20108;-64
2023/04/07 01:26:36;;;;;;;25.57;14.63;;;;;;;-145.18;100.00;60484.78;5071718;28;20079;-63
2023/04/07 01:29:33;;;;;;;24.03;14.10;;;;;;;-145.18;100.00;60484.78;5073411;28;20437;-63
2023/04/07 01:32:01;;;;;;;25.50;14.40;;;;;;;-145.18;100.00;60484.78;5069455;28;20040;-63
2023/04/07 01:34:30;;;;;;;23.97;14.53;;;;;;;-145.18;100.00;60484.78;5073416;28;20040;-64
2023/04/07 01:36:57;;;;;;;25.83;14.30;;;;;;;-145.18;100.00;60484.78;5073182;28;20036;-64
2023/04/07 01:39:25;;;;;;;24.33;14.53;;;;;;;-145.18;100.00;60484.78;5073255;28;20021;-64
2023/04/07 01:41:52;;;;;;;23.80;15.00;;;;;;;-145.18;100.00;60484.78;5069996;28;20025;-63
2023/04/07 01:44:19;;;;;;;25.87;14.03;;;;;;;-145.18;100.00;60484.78;5072114;28;20025;-64
2023/04/07 01:46:45;;;;;;;24.17;14.60;;;;;;;-145.18;100.00;60484.78;5073781;28;20052;-64
2023/04/07 01:49:12;;;;;;;23.63;13.90;;;;;;;-145.18;100.00;60484.78;5071727;28;20055;-63
2023/04/07 01:51:39;;;;;;;26.67;15.53;;;;;;;-145.18;100.00;60484.78;5073278;28;20052;-64
2023/04/07 01:54:06;;;;;;;28.37;14.97;;;;;;;-145.18;100.00;60484.78;5071795;28;20037;-63
2023/04/07 01:56:32;;;;;;;27.23;15.57;;;;;;;-145.18;100.00;60484.78;5056412;28;20037;-63
2023/04/07 01:58:57;;;;;;;26.10;14.30;;;;;;;-145.18;100.00;60484.78;5053334;28;20056;-63
2023/04/07 02:01:23;;;;;;;25.07;13.87;;;;;;;-145.18;100.00;60484.78;5053305;28;20033;-63
2023/04/07 02:03:55;;;;;;;23.53;13.30;;;;;;;-145.18;100.00;60484.78;5051978;28;20025;-63
2023/04/07 02:06:31;;;;;;;28.50;13.87;;;;;;;-145.18;100.00;60484.78;5052852;28;20037;-63
2023/04/07 02:09:01;;;;;;;26.47;15.30;;;;;;;-145.18;100.00;60484.78;5053065;28;20384;-63
2023/04/07 02:11:31;;;;;;;25.50;14.97;;;;;;;-145.18;100.00;60484.78;5052574;28;20114;-64
2023/04/07 02:14:00;;;;;;;28.50;14.93;;;;;;;-145.18;100.00;60484.78;5043228;28;20040;-64
2023/04/07 02:16:29;;;;;;;23.00;13.57;;;;;;;-145.18;100.00;60484.78;5051456;28;20040;-64
2023/04/07 02:18:55;;;;;;;24.67;14.83;;;;;;;-145.18;100.00;60484.78;5043777;28;20033;-64
2023/04/07 02:21:21;;;;;;;26.90;15.17;;;;;;;-145.18;100.00;60484.78;5047536;28;20374;-64
2023/04/07 02:23:47;;;;;;;22.60;13.57;;;;;;;-145.18;100.00;60484.78;5052556;28;20481;-64
2023/04/07 02:26:12;;;;;;;27.80;14.93;;;;;;;-145.18;100.00;60484.78;5051573;28;20029;-64
2023/04/07 02:28:38;;;;;;;29.20;15.97;;;;;;;-145.18;100.00;60484.78;5052922;28;20029;-64
2023/04/07 02:31:03;;;;;;;28.57;15.67;;;;;;;-145.18;100.00;60484.78;5052626;28;20374;-64
2023/04/07 02:33:29;;;;;;;28.87;15.83;;;;;;;-145.18;100.00;60484.78;5052541;28;20037;-65
2023/04/07 02:35:54;;;;;;;28.20;15.93;;;;;;;-145.18;100.00;60484.78;5048909;28;20056;-64
2023/04/07 02:38:20;;;;;;;28.53;16.90;;;;;;;-145.18;100.00;60484.78;5051923;28;20032;-64
2023/04/07 02:40:45;;;;;;;27.20;15.37;;;;;;;-145.18;100.00;60484.78;5052419;28;20113;-64
2023/04/07 02:43:11;;;;;;;30.23;16.93;;;;;;;-145.18;100.00;60484.78;5051985;28;20070;-64
2023/04/07 02:45:36;;;;;;;27.70;15.47;;;;;;;-145.18;100.00;60484.78;5052670;28;20396;-64
2023/04/07 02:48:02;;;;;;;27.37;16.17;;;;;;;-145.18;100.00;60484.78;5052565;28;20017;-69
2023/04/07 02:50:27;;;;;;;29.67;16.57;;;;;;;-145.18;100.00;60484.78;5051877;28;20108;-69
2023/04/07 02:52:53;;;;;;;26.10;15.10;;;;;;;-145.18;100.00;60484.78;5052567;28;20104;-69
2023/04/07 02:55:19;;;;;;;24.57;14.57;;;;;;;-145.18;100.00;60484.78;5052203;28;20025;-69
2023/04/07 02:57:44;;;;;;;29.93;16.50;;;;;;;-145.18;100.00;60484.78;5052601;28;20036;-69
2023/04/07 03:00:11;;;;;;;29.47;16.70;;;;;;;-145.18;100.00;60484.78;5052570;28;20028;-69
2023/04/07 03:02:36;;;;;;;26.83;13.93;;;;;;;-145.18;100.00;60484.78;5052297;28;20057;-69
2023/04/07 03:05:03;;;;;;;26.07;13.83;;;;;;;-145.18;100.00;60484.78;5051984;28;20444;-69
2023/04/07 03:07:30;;;;;;;24.63;14.17;;;;;;;-145.18;100.00;60484.78;5052118;28;20427;-69
2023/04/07 03:09:56;;;;;;;27.77;14.47;;;;;;;-145.18;100.00;60484.78;5034381;28;20449;-69
2023/04/07 03:12:21;;;;;;;27.30;15.13;;;;;;;-145.18;100.00;60484.78;5052570;28;20033;-68
2023/04/07 03:14:47;;;;;;;26.37;15.17;;;;;;;-145.18;100.00;60484.78;5052108;28;20033;-68
2023/04/07 03:17:13;;;;;;;27.60;14.27;;;;;;;-145.18;100.00;60484.78;5033520;28;20485;-68
2023/04/07 03:19:38;;;;;;;28.03;14.30;;;;;;;-145.18;100.00;60484.78;5052555;28;20104;-68
2023/04/07 03:22:04;;;;;;;29.53;14.20;;;;;;;-145.18;100.00;60484.78;5048525;28;20036;-68
2023/04/07 03:24:30;;;;;;;26.53;14.10;;;;;;;-145.18;100.00;60484.78;5052272;28;20477;-69
2023/04/07 03:26:55;;;;;;;23.87;12.87;;;;;;;-145.18;100.00;60484.78;5051522;28;20059;-69
2023/04/07 03:29:21;;;;;;;23.73;12.73;;;;;;;-145.18;100.00;60484.78;5051898;28;20063;-69
2023/04/07 03:31:46;;;;;;;26.03;13.10;;;;;;;-145.18;100.00;60484.78;5052233;28;20029;-68
2023/04/07 03:34:12;;;;;;;27.53;13.93;;;;;;;-145.18;100.00;60484.78;5051909;28;20485;-69
2023/04/07 03:36:38;;;;;;;23.30;13.50;;;;;;;-145.18;100.00;60484.78;5046634;28;20029;-69
2023/04/07 03:39:03;;;;;;;26.03;13.80;;;;;;;-145.18;100.00;60484.78;5049617;28;20052;-68
2023/04/07 03:41:29;;;;;;;29.10;14.47;;;;;;;-145.18;100.00;60484.78;5055078;28;20108;-69
2023/04/07 03:43:54;;;;;;;24.97;14.47;;;;;;;-145.18;100.00;60484.78;5054436;28;20401;-69
2023/04/07 03:46:20;;;;;;;27.93;15.00;;;;;;;-145.18;100.00;60484.78;5054654;28;20151;-68
2023/04/07 03:48:46;;;;;;;27.97;13.57;;;;;;;-145.18;100.00;60484.78;5055696;28;20397;-68
2023/04/07 03:51:12;;;;;;;26.93;13.87;;;;;;;-145.18;100.00;60484.78;5055786;28;20037;-68
2023/04/07 03:53:37;;;;;;;27.07;15.00;;;;;;;-145.18;100.00;60484.78;5055591;28;20435;-68
2023/04/07 03:56:03;;;;;;;26.17;13.80;;;;;;;-145.18;100.00;60484.78;5055518;28;20044;-68
2023/04/07 03:58:29;;;;;;;25.53;13.07;;;;;;;-145.18;100.00;60484.78;5055532;28;20059;-68
2023/04/07 04:00:54;;;;;;;21.53;11.83;;;;;;;-145.18;100.00;60484.78;5055522;28;20388;-68
2023/04/07 04:03:20;;;;;;;24.67;13.07;;;;;;;-145.18;100.00;60484.78;5055347;28;20113;-68
2023/04/07 04:05:45;;;;;;;23.47;12.60;;;;;;;-145.18;100.00;60484.78;5055221;28;20041;-69
2023/04/07 04:08:11;;;;;;;24.07;12.57;;;;;;;-145.18;100.00;60484.78;5055228;28;20449;-69
2023/04/07 04:10:36;;;;;;;24.97;12.60;;;;;;;-145.18;100.00;60484.78;5055534;28;20025;-69
2023/04/07 04:13:05;;;;;;;24.53;12.07;;;;;;;-145.18;100.00;60484.78;5047987;28;20132;-69
2023/04/07 04:15:31;;;;;;;20.53;12.00;;;;;;;-145.18;100.00;60484.78;5052971;28;20384;-68
2023/04/07 04:17:57;;;;;;;22.37;11.73;;;;;;;-145.18;100.00;60484.78;5055259;28;20037;-69
2023/04/07 04:20:22;;;;;;;21.77;12.50;;;;;;;-145.18;100.00;60484.78;5055124;28;20037;-68
2023/04/07 04:22:48;;;;;;;23.37;12.23;;;;;;;-145.18;100.00;60484.78;5055341;28;20032;-68
2023/04/07 04:25:15;;;;;;;23.87;12.50;;;;;;;-145.18;100.00;60484.78;5055000;28;20025;-68
2023/04/07 04:27:41;;;;;;;23.07;12.37;;;;;;;-145.18;100.00;60484.78;5055010;28;20099;-68
2023/04/07 04:30:07;;;;;;;23.67;12.50;;;;;;;-145.18;100.00;60484.78;5054992;28;20108;-69
2023/04/07 04:32:33;;;;;;;23.17;11.90;;;;;;;-145.18;100.00;60484.78;5054914;28;20107;-68
2023/04/07 04:34:58;;;;;;;25.97;13.77;;;;;;;-145.18;100.00;60484.78;5054683;28;20472;-68
2023/04/07 04:37:24;;;;;;;23.43;12.90;;;;;;;-145.18;100.00;60484.78;5054941;28;20100;-69
2023/04/07 04:39:50;;;;;;;22.77;12.23;;;;;;;-145.18;100.00;60484.78;5054607;28;20029;-68
2023/04/07 04:42:15;;;;;;;23.93;13.07;;;;;;;-145.18;100.00;60484.78;5054722;28;20272;-69
2023/04/07 04:44:41;;;;;;;21.83;10.97;;;;;;;-145.18;100.00;60484.78;5054618;28;20033;-69
2023/04/07 04:47:06;;;;;;;21.57;12.10;;;;;;;-145.18;100.00;60484.78;5054650;28;20037;-69
2023/04/07 04:49:32;;;;;;;24.53;11.90;;;;;;;-145.18;100.00;60484.78;5053921;28;20499;-68
2023/04/07 04:51:57;;;;;;;26.27;13.20;;;;;;;-145.18;100.00;60484.78;5054452;28;20039;-69
2023/04/07 04:54:22;;;;;;;20.37;11.27;;;;;;;-145.18;100.00;60484.78;5054572;28;20032;-68
2023/04/07 04:56:48;;;;;;;21.50;11.70;;;;;;;-145.18;100.00;60484.78;5054292;28;20468;-68
2023/04/07 04:59:13;;;;;;;22.33;11.17;;;;;;;-145.18;100.00;60484.78;5054394;28;20025;-69
2023/04/07 05:01:39;;;;;;;21.57;11.47;;;;;;;-145.18;100.00;60484.78;5054319;28;20029;-68
2023/04/07 05:04:05;;;;;;;21.83;12.03;;;;;;;-145.18;100.00;60484.78;5054214;28;20056;-68
2023/04/07 05:06:30;;;;;;;21.53;11.57;;;;;;;-145.18;100.00;60484.78;5054088;28;20373;-68
2023/04/07 05:08:56;;;;;;;20.67;10.90;;;;;;;-145.18;100.00;60484.78;5054163;28;20387;-68
2023/04/07 05:11:21;;;;;;;19.07;10.13;;;;;;;-145.18;100.00;60484.78;5053609;28;20021;-68
2023/04/07 05:13:47;;;;;;;23.37;11.63;;;;;;;-145.18;100.00;60484.78;5049350;28;20488;-68
2023/04/07 05:16:12;;;;;;;17.83;8.33;;;;;;;-145.18;100.00;60484.78;5034277;28;20493;-68
2023/04/07 05:18:38;;;;;;;19.13;10.13;;;;;;;-145.18;100.00;60484.78;5034127;28;20030;-69
2023/04/07 05:21:03;;;;;;;16.40;7.93;;;;;;;-145.18;100.00;60484.78;5034240;28;20150;-68
2023/04/07 05:23:29;;;;;;;23.93;11.00;;;;;;;-145.18;100.00;60484.78;5033967;28;20505;-68
2023/04/07 05:25:54;;;;;;;16.50;9.53;;;;;;;-145.18;100.00;60484.78;5034124;28;20136;-68
2023/04/07 05:28:20;;;;;;;20.87;10.37;;;;;;;-145.18;100.00;60484.78;5033972;28;20025;-67
2023/04/07 05:30:47;;;;;;;18.50;10.50;;;;;;;-145.18;100.00;60484.78;5033777;28;20033;-68
2023/04/07 05:33:12;;;;;;;18.20;9.80;;;;;;;-145.18;100.00;60484.78;5034247;28;20393;-68
2023/04/07 05:35:38;;;;;;;20.50;10.00;;;;;;;-145.18;100.00;60484.78;5053169;28;20024;-68
2023/04/07 05:38:03;;;;;;;18.10;9.87;;;;;;;-145.18;100.00;60484.78;5053080;28;20028;-68
2023/04/07 05:40:31;;;;;;;19.07;11.27;;;;;;;-145.18;100.00;60484.78;5052528;28;20107;-68
2023/04/07 05:42:57;;;;;;;18.23;11.17;;;;;;;-145.18;100.00;60484.78;5037681;28;20064;-67
2023/04/07 05:45:22;;;;;;;12.73;6.77;;;;;;;-145.18;100.00;60484.78;5033746;28;20417;-67
2023/04/07 05:47:49;;;;;;;17.97;8.87;;;;;;;-145.18;100.00;60484.78;5046560;28;20029;-67
2023/04/07 05:50:15;;;;;;;14.53;8.20;;;;;;;-145.18;100.00;60484.78;5053494;28;20031;-67
2023/04/07 05:52:41;;;;;;;20.43;9.60;;;;;;;-145.18;100.00;60484.78;5052795;28;20100;-67
2023/04/07 05:55:07;;;;;;;15.57;8.87;;;;;;;-145.18;100.00;60484.78;5053379;28;20045;-67
2023/04/07 05:57:33;;;;;;;15.73;7.63;;;;;;;-145.18;100.00;60484.78;5053297;28;20440;-67
2023/04/07 05:59:59;;;;;;;17.80;9.23;;;;;;;-145.18;100.00;60484.78;5053106;28;20021;-67
2023/04/07 06:02:24;;;;;;;12.03;6.50;;;;;;;-145.18;100.00;60484.78;5053220;28;20370;-67
2023/04/07 06:04:50;;;;;;;15.60;9.13;;;;;;;-145.18;100.00;60484.78;5053024;28;20025;-66
2023/04/07 06:07:16;;;;;;;14.80;8.87;;;;;;;-145.18;100.00;60484.78;5035262;28;20044;-66
2023/04/07 06:09:41;;;;;;;17.30;9.37;;;;;;;-145.18;100.00;60484.78;5053333;28;20078;-66
2023/04/07 06:12:08;;;;;;;17.43;9.63;;;;;;;-145.18;100.00;60484.78;5051388;28;20102;-66
2023/04/07 06:14:34;;;;;;;12.10;6.47;;;;;;;-145.18;100.00;60484.78;5049701;28;20024;-66
2023/04/07 06:17:00;;;;;;;13.83;8.27;;;;;;;-145.18;100.00;60484.78;5053180;28;20032;-67
2023/04/07 06:19:26;;;;;;;17.47;9.07;;;;;;;-145.18;100.00;60484.78;5053035;28;20028;-66
2023/04/07 06:21:52;;;;;;;17.40;9.37;;;;;;;-145.18;100.00;60484.78;5053146;28;20040;-66
2023/04/07 06:24:18;;;;;;;18.07;9.27;;;;;;;-145.18;100.00;60484.78;5053080;28;20480;-66
2023/04/07 06:26:43;;;;;;;14.03;7.53;;;;;;;-145.18;100.00;60484.78;5052949;28;20387;-66
2023/04/07 06:29:09;;;;;;;14.70;7.77;;;;;;;-145.18;100.00;60484.78;5052897;28;20043;-66
2023/04/07 06:31:34;;;;;;;16.57;7.90;;;;;;;-145.18;100.00;60484.78;5052902;28;20029;-66
2023/04/07 06:34:00;;;;;;;15.43;8.90;;;;;;;-145.18;100.00;60484.78;5052844;28;20057;-66
2023/04/07 06:36:26;;;;;;;14.40;8.83;;;;;;;-145.18;100.00;60484.78;5052640;28;20033;-66
2023/04/07 06:38:52;;;;;;;11.90;6.00;;;;;;;-145.18;100.00;60484.78;5052851;28;20519;-66
2023/04/07 06:41:17;;;;;;;14.27;8.63;;;;;;;-145.18;100.00;60484.78;5053042;28;20022;-67
2023/04/07 06:43:45;;;;;;;13.43;7.83;;;;;;;-145.18;100.00;60484.78;5052692;28;20412;-66
2023/04/07 06:46:10;;;;;;;7.07;3.67;;;;;;;-145.18;100.00;60484.78;5052982;28;20389;-66
2023/04/07 06:48:36;;;;;;;13.07;7.23;;;;;;;-145.18;100.00;60484.78;5052878;28;20029;-67
2023/04/07 06:51:01;;;;;;;12.23;6.43;;;;;;;-145.18;100.00;60484.78;5052921;28;20541;-66
2023/04/07 06:53:27;;;;;;;14.37;6.47;;;;;;;-145.18;100.00;60484.78;5052689;28;20029;-66
2023/04/07 06:56:05;;;;;;;16.33;8.20;;;;;;;-145.18;100.00;60484.78;5052624;28;20033;-67
2023/04/07 06:58:31;;;;;;;8.00;3.73;;;;;;;-145.18;100.00;60484.78;5052629;28;20044;-67
2023/04/07 07:00:56;;;;;;;10.70;5.87;;;;;;;-145.18;100.00;60484.78;5052659;28;20033;-66
2023/04/07 07:03:22;;;;;;;11.50;5.97;;;;;;;-145.18;100.00;60484.78;5052554;28;20488;-67
2023/04/07 07:05:48;;;;;;;10.37;5.60;;;;;;;-145.18;100.00;60484.78;5052584;28;20120;-67
2023/04/07 07:08:13;;;;;;;13.10;6.70;;;;;;;-145.18;100.00;60484.78;5052500;28;20108;-66
2023/04/07 07:10:39;;;;;;;11.03;6.30;;;;;;;-145.18;100.00;60484.78;5052047;28;20068;-67
2023/04/07 07:13:04;;;;;;;13.33;6.80;;;;;;;-145.18;100.00;60484.78;5039520;28;20029;-67
2023/04/07 07:15:30;;;;;;;12.60;7.07;;;;;;;-145.18;100.00;60484.78;5036471;28;20030;-67
2023/04/07 07:17:55;;;;;;;12.07;5.67;;;;;;;-145.18;100.00;60484.78;5036537;28;20036;-67
2023/04/07 07:20:22;;;;;;;10.03;5.87;;;;;;;-145.18;100.00;60484.78;5036278;28;20123;-68
2023/04/07 07:22:47;;;;;;;12.40;7.07;;;;;;;-145.18;100.00;60484.78;5036565;28;20025;-67
2023/04/07 07:25:13;;;;;;;11.00;6.17;;;;;;;-145.18;100.00;60484.78;5036369;28;20025;-67
2023/04/07 07:27:39;;;;;;;13.77;7.53;;;;;;;-145.18;100.00;60484.78;5051065;28;20490;-67
2023/04/07 07:30:05;;;;;;;9.73;5.17;;;;;;;-145.18;100.00;60484.78;5056127;28;20021;-67
2023/04/07 07:32:30;;;;;;;10.10;5.40;;;;;;;-145.18;100.00;60484.78;5052881;28;20029;-67
2023/04/07 07:34:56;;;;;;;11.73;7.37;;;;;;;-145.18;100.00;60484.78;5055727;28;20032;-67
2023/04/07 07:37:21;;;;;;;11.90;6.93;;;;;;;-145.18;100.00;60484.78;5055763;28;20489;-67
2023/04/07 07:39:47;;;;;;;18.10;8.57;;;;;;;-145.18;100.00;60484.78;5053487;28;20033;-67
2023/04/07 07:42:12;;;;;;;16.77;8.17;;;;;;;-145.18;100.00;60484.78;5055854;28;20021;-67
2023/04/07 07:44:38;;;;;;;11.03;6.27;;;;;;;-145.18;100.00;60484.78;5055870;28;20104;-66
2023/04/07 07:47:03;;;;;;;13.60;7.77;;;;;;;-145.18;100.00;60484.78;5053133;28;20033;-67
2023/04/07 07:49:29;;;;;;;14.93;8.37;;;;;;;-145.18;100.00;60484.78;5055765;28;20143;-67
2023/04/07 07:51:54;;;;;;;11.27;6.40;;;;;;;-145.18;100.00;60484.78;5055832;28;20029;-67
2023/04/07 07:54:20;;;;;;;15.83;7.63;;;;;;;-145.18;100.00;60484.78;5055597;28;20021;-66
2023/04/07 07:56:45;;;;;;;14.57;7.63;;;;;;;-145.18;100.00;60484.78;5055364;28;20055;-66
2023/04/07 07:59:11;;;;;;;13.43;5.87;;;;;;;-145.18;100.00;60484.78;5055343;28;20481;-67
2023/04/07 08:01:36;;;;;;;14.53;6.77;;;;;;;-145.18;100.00;60484.78;5055543;28;20032;-66
2023/04/07 08:04:02;;;;;;;12.00;6.77;;;;;;;-145.18;100.00;60484.78;5055415;28;20025;-66
2023/04/07 08:06:28;;;;;;;14.53;7.30;;;;;;;-145.18;100.00;60484.78;5055251;28;20108;-66
2023/04/07 08:08:53;;;;;;;13.33;7.00;;;;;;;-145.18;100.00;60484.78;5042695;28;20167;-67
2023/04/07 08:11:20;;;;;;;13.10;6.40;;;;;;;-145.18;100.00;60484.78;5035808;28;21180;-66
2023/04/07 08:13:45;;;;;;;15.77;8.80;;;;;;;-145.18;100.00;60484.78;5054252;28;20077;-67
2023/04/07 08:16:11;;;;;;;14.90;9.40;;;;;;;-145.18;100.00;60484.78;5055262;28;20111;-67
2023/04/07 08:18:36;;;;;;;14.60;8.60;;;;;;;-145.18;100.00;60484.78;5055353;28;20025;-67
2023/04/07 08:21:04;;;;;;;12.13;6.20;;;;;;;-145.18;100.00;60484.78;5055300;28;20480;-66
2023/04/07 08:23:30;;;;;;;12.83;6.67;;;;;;;-145.18;100.00;60484.78;5053754;28;20056;-68
2023/04/07 08:25:55;;;;;;;9.43;4.53;;;;;;;-145.18;100.00;60484.78;5055107;28;20357;-67
2023/04/07 08:28:21;;;;;;;12.93;7.80;;;;;;;-145.18;100.00;60484.78;5055069;28;20024;-67
2023/04/07 08:30:47;;;;;;;15.03;8.87;;;;;;;-145.18;100.00;60484.78;5054964;28;20100;-66
2023/04/07 08:33:13;;;;;;;13.10;6.47;;;;;;;-145.18;100.00;60484.78;5054918;28;20507;-67
2023/04/07 08:35:38;;;;;;;12.83;7.20;;;;;;;-145.18;100.00;60484.78;5054593;28;20043;-66
2023/04/07 08:38:04;;;;;;;14.93;7.30;;;;;;;-145.18;100.00;60484.78;5054704;28;20036;-66
2023/04/07 08:40:31;;;;;;;15.20;7.80;;;;;;;-145.18;100.00;60484.78;5054650;28;20028;-66
2023/04/07 08:42:59;;;;;;;15.23;7.93;;;;;;;-145.18;100.00;60484.78;5054582;28;20029;-66
2023/04/07 08:45:25;;;;;;;10.77;6.33;;;;;;;-145.18;100.00;60484.78;5054878;28;20036;-66
2023/04/07 08:47:57;;;;;;;13.13;7.07;;;;;;;-145.18;100.00;60484.78;5054633;28;20037;-66
2023/04/07 08:50:27;;;;;;;11.70;5.87;;;;;;;-145.18;100.00;60484.78;5054536;28;20032;-67
2023/04/07 08:52:58;;;;;;;10.83;5.33;;;;;;;-145.18;100.00;60484.78;5054446;28;20082;-66
2023/04/07 08:55:25;;;;;;;10.03;5.50;;;;;;;-145.18;100.00;60484.78;5054294;28;20111;-66
2023/04/07 08:57:51;;;;;;;11.53;6.33;;;;;;;-145.18;100.00;60484.78;5054333;28;20032;-67
2023/04/07 09:00:17;;;;;;;13.23;6.57;;;;;;;-145.18;100.00;60484.78;5054302;28;20029;-66
2023/04/07 09:02:44;;;;;;;12.07;7.82;;;;;;;-145.18;100.00;60484.78;5054243;28;20116;-67
2023/04/07 09:05:10;;;;;;;10.30;4.55;;;;;;;-145.18;100.00;60484.78;5054072;28;20540;-67
2023/04/07 09:07:37;;;;;;;12.97;6.83;;;;;;;-145.18;100.00;60484.78;5054453;28;20067;-67
2023/04/07 09:10:03;;;;;;;8.67;4.73;;;;;;;-145.18;100.00;60484.78;5051821;28;20487;-67
2023/04/07 09:12:30;;;;;;;11.03;6.23;;;;;;;-145.18;100.00;60484.78;5053989;28;20060;-67
2023/04/07 09:14:56;;;;;;;11.25;6.10;;;;;;;-145.18;100.00;60484.78;5054177;28;20464;-67
2023/04/07 09:17:25;;;;;;;10.87;5.70;;;;;;;-145.18;100.00;60484.78;5054022;28;20032;-67
2023/04/07 09:19:52;;;;;;;14.97;7.80;;;;;;;-145.18;100.00;60484.78;5052311;28;20547;-67
2023/04/07 09:22:38;;;;;;;8.77;4.22;;;;;;;-145.18;100.00;60484.78;5053804;28;20029;-67
2023/04/07 09:25:18;;;;;;;12.65;6.55;;;;;;;-145.18;100.00;60484.78;5051691;28;20033;-67
2023/04/07 09:27:58;;;;;;;8.38;4.72;;;;;;;-145.18;100.00;60484.78;5053788;28;20036;-67
2023/04/07 09:30:24;;;;;;;10.40;5.97;;;;;;;-145.18;100.00;60484.78;5053722;28;20064;-67
2023/04/07 09:32:50;;;;;;;10.77;5.72;;;;;;;-145.18;100.00;60484.78;5053905;28;20093;-67
2023/04/07 09:35:15;;;;;;;10.35;5.32;;;;;;;-145.18;100.00;60484.78;5053635;28;20028;-67
2023/04/07 09:37:41;;;;;;;10.07;6.10;;;;;;;-145.18;100.00;60484.78;5053597;28;20033;-67
2023/04/07 09:40:07;;;;;;;10.15;5.88;;;;;;;-145.18;100.00;60484.78;5053710;28;20029;-67
2023/04/07 09:42:35;;;;;;;7.95;4.10;;;;;;;-145.18;100.00;60484.78;5051815;28;20036;-67
2023/04/07 09:45:02;;;;;;;11.27;6.00;;;;;;;-145.18;100.00;60484.78;5053511;28;20028;-67
2023/04/07 09:47:28;;;;;;;11.10;5.40;;;;;;;-145.18;100.00;60484.78;5052722;28;20067;-67
2023/04/07 09:49:55;;;;;;;10.90;4.82;;;;;;;-145.18;100.00;60484.78;5053425;28;20542;-67
2023/04/07 09:52:53;;;;;;;8.77;4.70;;;;;;;-145.18;100.00;60484.78;5053288;28;20029;-67
2023/04/07 09:55:21;;;;;;;13.32;7.90;;;;;;;-145.18;100.00;60484.78;5052720;28;20441;-67
2023/04/07 09:57:48;;;;;;;11.18;6.53;;;;;;;-145.18;100.00;60484.78;5053352;28;20060;-67
2023/04/07 10:00:15;;;;;;;7.82;3.92;;;;;;;-145.18;100.00;60484.78;5053374;28;20032;-68
2023/04/07 10:02:41;;;;;;;12.77;7.80;;;;;;;-145.18;100.00;60484.78;5053333;28;20025;-68
2023/04/07 10:05:08;;;;;;;9.30;6.28;;;;;;;-145.18;100.00;60484.78;5053045;28;20035;-67
2023/04/07 10:07:34;;;;;;;11.43;6.15;;;;;;;-145.18;100.00;60484.78;5053098;28;20025;-68
2023/04/07 10:09:59;;;;;;;13.55;8.35;;;;;;;-145.18;100.00;60484.78;5052987;28;20120;-68
2023/04/07 10:12:26;;;;;;;13.73;8.60;;;;;;;-145.18;100.00;60484.78;5051269;28;20109;-69
2023/04/07 10:14:52;;;;;;;11.95;7.05;;;;;;;-145.18;100.00;60484.78;5050109;28;20431;-68
2023/04/07 10:17:19;;;;;;;11.93;7.03;;;;;;;-145.18;100.00;60484.78;5052904;28;20034;-68
2023/04/07 10:19:47;;;;;;;10.82;6.03;;;;;;;-145.18;100.00;60484.78;5053329;28;20458;-68
2023/04/07 10:22:14;;;;;;;10.88;6.10;;;;;;;-145.18;100.00;60484.78;5052931;28;20021;-68
2023/04/07 10:25:09;;;;;;;13.15;7.50;;;;;;;-145.18;100.00;60484.78;5053191;28;20392;-68
2023/04/07 10:27:41;;;;;;;10.18;5.18;;;;;;;-145.18;100.00;60484.78;5051428;28;20405;-68
2023/04/07 10:30:14;;;;;;;13.32;7.50;;;;;;;-145.18;100.00;60484.78;5052889;28;20021;-68
2023/04/07 10:32:50;;;;;;;14.43;8.63;;;;;;;-145.18;100.00;60484.78;5052934;28;20029;-68
2023/04/07 10:35:16;;;;;;;13.57;7.13;;;;;;;-145.18;100.00;60484.78;5053040;28;20017;-69
2023/04/07 10:38:20;;;;;;;17.15;10.18;;;;;;;-145.18;100.00;60484.78;5052958;28;20112;-69
2023/04/07 10:40:45;;;;;;;14.02;7.93;;;;;;;-145.18;100.00;60484.78;5052756;28;20029;-69
2023/04/07 10:43:11;;;;;;;16.80;9.63;;;;;;;-145.18;100.00;60484.78;5052493;28;20025;-68
2023/04/07 10:45:56;;;;;;;15.65;9.88;;;;;;;-145.18;100.00;60484.78;5052749;28;20029;-69
2023/04/07 10:48:22;;;;;;;17.42;10.68;;;;;;;-145.18;100.00;60484.78;5056482;28;20021;-68
2023/04/07 10:51:26;;;;;;;14.48;7.85;;;;;;;-145.18;100.00;60484.78;5056724;28;20393;-69
2023/04/07 10:54:21;;;;;;;15.40;9.10;;;;;;;-145.18;100.00;60484.78;5014901;28;20044;-68
2023/04/07 10:57:10;;;;;;;16.13;8.93;;;;;;;-145.18;100.00;60484.78;5014798;28;20497;-68
2023/04/07 10:59:38;;;;;;;15.27;8.90;;;;;;;-145.18;100.00;60484.78;5014784;28;20034;-69
2023/04/07 11:02:32;;;;;;;13.27;5.87;;;;;;;-145.18;100.00;60484.78;5014756;28;20042;-68